sensor_id;sensor_type;location;lat;lon;timestamp;temperature;humidity
59282;DHT22;45054;52.062;10.010;2024-02-21T00:00:18;8.50;99.90
59282;DHT22;45054;52.062;10.010;2024-02-21T00:02:45;8.50;99.90
59282;DHT22;45054;52.062;10.010;2024-02-21T00:05:11;8.50;99.90
59282;DHT22;45054;52.062;10.010;2024-02-21T00:07:36;8.50;99.90
59282;DHT22;45054;52.062;10.010;2024-02-21T00:10:02;8.50;99.90
59282;DHT22;45054;52.062;10.010;2024-02-21T00:12:28;8.50;99.90
59282;DHT22;45054;52.062;10.010;2024-02-21T00:14:53;8.50;99.90
59282;DHT22;45054;52.062;10.010;2024-02-21T00:17:19;8.50;99.90
59282;DHT22;45054;52.062;10.010;2024-02-21T00:19:46;8.50;99.90
59282;DHT22;45054;52.062;10.010;2024-02-21T00:22:11;8.50;99.90
59282;DHT22;45054;52.062;10.010;2024-02-21T00:24:37;8.50;99.90
59282;DHT22;45054;52.062;10.010;2024-02-21T00:27:03;8.50;99.90
59282;DHT22;45054;52.062;10.010;2024-02-21T00:29:28;8.50;99.90
59282;DHT22;45054;52.062;10.010;2024-02-21T00:31:54;8.50;99.90
59282;DHT22;45054;52.062;10.010;2024-02-21T00:34:19;8.50;99.90
59282;DHT22;45054;52.062;10.010;2024-02-21T00:36:46;8.50;99.90
59282;DHT22;45054;52.062;10.010;2024-02-21T00:39:12;8.50;99.90
59282;DHT22;45054;52.062;10.010;2024-02-21T00:41:38;8.50;99.90
59282;DHT22;45054;52.062;10.010;2024-02-21T00:44:03;8.50;99.90
59282;DHT22;45054;52.062;10.010;2024-02-21T00:46:29;8.60;99.90
59282;DHT22;45054;52.062;10.010;2024-02-21T00:48:54;8.50;99.90
59282;DHT22;45054;52.062;10.010;2024-02-21T00:51:20;8.50;99.90
59282;DHT22;45054;52.062;10.010;2024-02-21T00:53:47;8.50;99.90
59282;DHT22;45054;52.062;10.010;2024-02-21T00:56:12;8.50;99.90
59282;DHT22;45054;52.062;10.010;2024-02-21T00:58:38;8.50;99.90
59282;DHT22;45054;52.062;10.010;2024-02-21T01:01:04;8.50;99.90
59282;DHT22;45054;52.062;10.010;2024-02-21T01:03:29;8.50;99.90
59282;DHT22;45054;52.062;10.010;2024-02-21T01:05:55;8.50;99.90
59282;DHT22;45054;52.062;10.010;2024-02-21T01:08:20;8.50;99.90
59282;DHT22;45054;52.062;10.010;2024-02-21T01:10:47;8.50;99.90
59282;DHT22;45054;52.062;10.010;2024-02-21T01:13:13;8.50;99.90
59282;DHT22;45054;52.062;10.010;2024-02-21T01:15:38;8.50;99.90
59282;DHT22;45054;52.062;10.010;2024-02-21T01:18:04;8.50;99.90
59282;DHT22;45054;52.062;10.010;2024-02-21T01:20:30;8.50;99.90
59282;DHT22;45054;52.062;10.010;2024-02-21T01:22:55;8.50;99.90
59282;DHT22;45054;52.062;10.010;2024-02-21T01:25:21;8.50;99.90
59282;DHT22;45054;52.062;10.010;2024-02-21T01:27:48;8.50;99.90
59282;DHT22;45054;52.062;10.010;2024-02-21T01:30:13;8.50;99.90
59282;DHT22;45054;52.062;10.010;2024-02-21T01:32:39;8.50;99.90
59282;DHT22;45054;52.062;10.010;2024-02-21T01:35:05;8.50;99.90
59282;DHT22;45054;52.062;10.010;2024-02-21T01:37:30;8.50;99.90
59282;DHT22;45054;52.062;10.010;2024-02-21T01:39:56;8.50;99.90
59282;DHT22;45054;52.062;10.010;2024-02-21T01:42:21;8.50;99.90
59282;DHT22;45054;52.062;10.010;2024-02-21T01:44:48;8.50;99.90
59282;DHT22;45054;52.062;10.010;2024-02-21T01:47:14;8.50;99.90
59282;DHT22;45054;52.062;10.010;2024-02-21T01:49:40;8.50;99.90
59282;DHT22;45054;52.062;10.010;2024-02-21T01:52:06;8.50;99.90
59282;DHT22;45054;52.062;10.010;2024-02-21T01:54:32;8.50;99.90
59282;DHT22;45054;52.062;10.010;2024-02-21T01:56:58;8.50;99.90
59282;DHT22;45054;52.062;10.010;2024-02-21T01:59:24;8.60;99.90
59282;DHT22;45054;52.062;10.010;2024-02-21T02:01:52;8.60;99.90
59282;DHT22;45054;52.062;10.010;2024-02-21T02:04:20;8.60;99.90
59282;DHT22;45054;52.062;10.010;2024-02-21T02:06:45;8.60;99.90
59282;DHT22;45054;52.062;10.010;2024-02-21T02:09:11;8.60;99.90
59282;DHT22;45054;52.062;10.010;2024-02-21T02:11:37;8.60;99.90
59282;DHT22;45054;52.062;10.010;2024-02-21T02:14:02;8.60;99.90
59282;DHT22;45054;52.062;10.010;2024-02-21T02:16:28;8.60;99.90
59282;DHT22;45054;52.062;10.010;2024-02-21T02:18:55;8.60;99.90
59282;DHT22;45054;52.062;10.010;2024-02-21T02:21:25;8.60;99.90
59282;DHT22;45054;52.062;10.010;2024-02-21T02:23:57;8.70;99.90
59282;DHT22;45054;52.062;10.010;2024-02-21T02:26:22;8.60;99.90
59282;DHT22;45054;52.062;10.010;2024-02-21T02:28:48;8.60;99.90
59282;DHT22;45054;52.062;10.010;2024-02-21T02:31:13;8.60;99.90
59282;DHT22;45054;52.062;10.010;2024-02-21T02:33:39;8.60;99.90
59282;DHT22;45054;52.062;10.010;2024-02-21T02:36:05;8.60;99.90
59282;DHT22;45054;52.062;10.010;2024-02-21T02:38:31;8.70;99.90
59282;DHT22;45054;52.062;10.010;2024-02-21T02:40:58;8.60;99.90
59282;DHT22;45054;52.062;10.010;2024-02-21T02:43:23;8.70;99.90
59282;DHT22;45054;52.062;10.010;2024-02-21T02:45:49;8.70;99.90
59282;DHT22;45054;52.062;10.010;2024-02-21T02:48:14;8.70;99.90
59282;DHT22;45054;52.062;10.010;2024-02-21T02:50:40;8.70;99.90
59282;DHT22;45054;52.062;10.010;2024-02-21T02:53:05;8.70;99.90
59282;DHT22;45054;52.062;10.010;2024-02-21T02:55:31;8.70;99.90
59282;DHT22;45054;52.062;10.010;2024-02-21T02:57:58;8.70;99.90
59282;DHT22;45054;52.062;10.010;2024-02-21T03:00:23;8.70;99.90
59282;DHT22;45054;52.062;10.010;2024-02-21T03:02:49;8.70;99.90
59282;DHT22;45054;52.062;10.010;2024-02-21T03:05:16;8.70;99.90
59282;DHT22;45054;52.062;10.010;2024-02-21T03:07:43;8.70;99.90
59282;DHT22;45054;52.062;10.010;2024-02-21T03:10:09;8.70;99.90
59282;DHT22;45054;52.062;10.010;2024-02-21T03:12:34;8.70;99.90
59282;DHT22;45054;52.062;10.010;2024-02-21T03:15:02;8.70;99.90
59282;DHT22;45054;52.062;10.010;2024-02-21T03:17:27;8.70;99.90
59282;DHT22;45054;52.062;10.010;2024-02-21T03:19:53;8.80;99.90
59282;DHT22;45054;52.062;10.010;2024-02-21T03:22:18;8.80;99.90
59282;DHT22;45054;52.062;10.010;2024-02-21T03:24:44;8.70;99.90
59282;DHT22;45054;52.062;10.010;2024-02-21T03:27:10;8.80;99.90
59282;DHT22;45054;52.062;10.010;2024-02-21T03:29:35;8.70;99.90
59282;DHT22;45054;52.062;10.010;2024-02-21T03:32:03;8.70;99.90
59282;DHT22;45054;52.062;10.010;2024-02-21T03:34:29;8.70;99.90
59282;DHT22;45054;52.062;10.010;2024-02-21T03:36:54;8.80;99.90
59282;DHT22;45054;52.062;10.010;2024-02-21T03:39:20;8.80;99.90
59282;DHT22;45054;52.062;10.010;2024-02-21T03:41:45;8.80;99.90
59282;DHT22;45054;52.062;10.010;2024-02-21T03:44:11;8.80;99.90
59282;DHT22;45054;52.062;10.010;2024-02-21T03:46:36;8.70;99.90
59282;DHT22;45054;52.062;10.010;2024-02-21T03:49:03;8.70;99.90
59282;DHT22;45054;52.062;10.010;2024-02-21T03:51:29;8.70;99.90
59282;DHT22;45054;52.062;10.010;2024-02-21T03:53:54;8.70;99.90
59282;DHT22;45054;52.062;10.010;2024-02-21T03:56:20;8.70;99.90
59282;DHT22;45054;52.062;10.010;2024-02-21T03:58:45;8.70;99.90
59282;DHT22;45054;52.062;10.010;2024-02-21T04:01:11;8.70;99.90
59282;DHT22;45054;52.062;10.010;2024-02-21T04:03:36;8.70;99.90
59282;DHT22;45054;52.062;10.010;2024-02-21T04:06:04;8.70;99.90
59282;DHT22;45054;52.062;10.010;2024-02-21T04:08:29;8.70;99.90
59282;DHT22;45054;52.062;10.010;2024-02-21T04:10:55;8.70;99.90
59282;DHT22;45054;52.062;10.010;2024-02-21T04:13:21;8.60;99.90
59282;DHT22;45054;52.062;10.010;2024-02-21T04:15:46;8.60;99.90
59282;DHT22;45054;52.062;10.010;2024-02-21T04:18:12;8.60;99.90
59282;DHT22;45054;52.062;10.010;2024-02-21T04:20:37;8.60;99.90
59282;DHT22;45054;52.062;10.010;2024-02-21T04:23:04;8.60;99.90
59282;DHT22;45054;52.062;10.010;2024-02-21T04:25:30;8.60;99.90
59282;DHT22;45054;52.062;10.010;2024-02-21T04:27:55;8.60;99.90
59282;DHT22;45054;52.062;10.010;2024-02-21T04:30:21;8.60;99.90
59282;DHT22;45054;52.062;10.010;2024-02-21T04:32:47;8.60;99.90
59282;DHT22;45054;52.062;10.010;2024-02-21T04:35:12;8.60;99.90
59282;DHT22;45054;52.062;10.010;2024-02-21T04:37:38;8.60;99.90
59282;DHT22;45054;52.062;10.010;2024-02-21T04:40:06;8.60;99.90
59282;DHT22;45054;52.062;10.010;2024-02-21T04:42:32;8.60;99.90
59282;DHT22;45054;52.062;10.010;2024-02-21T04:44:57;8.60;99.90
59282;DHT22;45054;52.062;10.010;2024-02-21T04:47:23;8.60;99.90
59282;DHT22;45054;52.062;10.010;2024-02-21T04:49:48;8.60;99.90
59282;DHT22;45054;52.062;10.010;2024-02-21T04:52:14;8.60;99.90
59282;DHT22;45054;52.062;10.010;2024-02-21T04:54:39;8.60;99.90
59282;DHT22;45054;52.062;10.010;2024-02-21T04:57:06;8.60;99.90
59282;DHT22;45054;52.062;10.010;2024-02-21T04:59:32;8.60;99.90
59282;DHT22;45054;52.062;10.010;2024-02-21T05:01:58;8.60;99.90
59282;DHT22;45054;52.062;10.010;2024-02-21T05:04:23;8.70;99.90
59282;DHT22;45054;52.062;10.010;2024-02-21T05:06:49;8.60;99.90
59282;DHT22;45054;52.062;10.010;2024-02-21T05:09:14;8.70;99.90
59282;DHT22;45054;52.062;10.010;2024-02-21T05:11:40;8.70;99.90
59282;DHT22;45054;52.062;10.010;2024-02-21T05:14:07;8.70;99.90
59282;DHT22;45054;52.062;10.010;2024-02-21T05:16:32;8.70;99.90
59282;DHT22;45054;52.062;10.010;2024-02-21T05:18:58;8.80;99.90
59282;DHT22;45054;52.062;10.010;2024-02-21T05:21:24;8.80;99.90
59282;DHT22;45054;52.062;10.010;2024-02-21T05:23:49;8.80;99.90
59282;DHT22;45054;52.062;10.010;2024-02-21T05:26:20;8.80;99.90
59282;DHT22;45054;52.062;10.010;2024-02-21T05:28:45;8.70;99.90
59282;DHT22;45054;52.062;10.010;2024-02-21T05:31:12;8.70;99.90
59282;DHT22;45054;52.062;10.010;2024-02-21T05:33:38;8.70;99.90
59282;DHT22;45054;52.062;10.010;2024-02-21T05:36:04;8.70;99.90
59282;DHT22;45054;52.062;10.010;2024-02-21T05:38:30;8.70;99.90
59282;DHT22;45054;52.062;10.010;2024-02-21T05:40:56;8.70;99.90
59282;DHT22;45054;52.062;10.010;2024-02-21T05:43:21;8.70;99.90
59282;DHT22;45054;52.062;10.010;2024-02-21T05:45:47;8.80;99.90
59282;DHT22;45054;52.062;10.010;2024-02-21T05:48:13;8.80;99.90
59282;DHT22;45054;52.062;10.010;2024-02-21T05:50:39;8.70;99.90
59282;DHT22;45054;52.062;10.010;2024-02-21T05:53:05;8.70;99.90
59282;DHT22;45054;52.062;10.010;2024-02-21T05:55:30;8.70;99.90
59282;DHT22;45054;52.062;10.010;2024-02-21T05:57:56;8.70;99.90
59282;DHT22;45054;52.062;10.010;2024-02-21T06:00:22;8.70;99.90
59282;DHT22;45054;52.062;10.010;2024-02-21T06:02:47;8.70;99.90
59282;DHT22;45054;52.062;10.010;2024-02-21T06:05:14;8.70;99.90
59282;DHT22;45054;52.062;10.010;2024-02-21T06:07:40;8.70;99.90
59282;DHT22;45054;52.062;10.010;2024-02-21T06:10:07;8.70;99.90
59282;DHT22;45054;52.062;10.010;2024-02-21T06:12:32;8.60;99.90
59282;DHT22;45054;52.062;10.010;2024-02-21T06:14:58;8.60;99.90
59282;DHT22;45054;52.062;10.010;2024-02-21T06:17:24;8.60;99.90
59282;DHT22;45054;52.062;10.010;2024-02-21T06:19:49;8.60;99.90
59282;DHT22;45054;52.062;10.010;2024-02-21T06:22:16;8.60;99.90
59282;DHT22;45054;52.062;10.010;2024-02-21T06:24:42;8.60;99.90
59282;DHT22;45054;52.062;10.010;2024-02-21T06:27:08;8.60;99.90
59282;DHT22;45054;52.062;10.010;2024-02-21T06:29:34;8.60;99.90
59282;DHT22;45054;52.062;10.010;2024-02-21T06:32:00;8.60;99.90
59282;DHT22;45054;52.062;10.010;2024-02-21T06:34:25;8.60;99.90
59282;DHT22;45054;52.062;10.010;2024-02-21T06:36:51;8.60;99.90
59282;DHT22;45054;52.062;10.010;2024-02-21T06:39:18;8.60;99.90
59282;DHT22;45054;52.062;10.010;2024-02-21T06:41:44;8.60;99.90
59282;DHT22;45054;52.062;10.010;2024-02-21T06:44:09;8.60;99.90
59282;DHT22;45054;52.062;10.010;2024-02-21T06:46:35;8.50;99.90
59282;DHT22;45054;52.062;10.010;2024-02-21T06:49:01;8.50;99.90
59282;DHT22;45054;52.062;10.010;2024-02-21T06:51:27;8.60;99.90
59282;DHT22;45054;52.062;10.010;2024-02-21T06:53:53;8.50;99.90
59282;DHT22;45054;52.062;10.010;2024-02-21T06:56:20;8.50;99.90
59282;DHT22;45054;52.062;10.010;2024-02-21T06:58:46;8.50;99.90
59282;DHT22;45054;52.062;10.010;2024-02-21T07:01:11;8.50;99.90
59282;DHT22;45054;52.062;10.010;2024-02-21T07:03:37;8.50;99.90
59282;DHT22;45054;52.062;10.010;2024-02-21T07:06:03;8.60;99.90
59282;DHT22;45054;52.062;10.010;2024-02-21T07:08:29;8.50;99.90
59282;DHT22;45054;52.062;10.010;2024-02-21T07:10:54;8.50;99.90
59282;DHT22;45054;52.062;10.010;2024-02-21T07:13:21;8.50;99.90
59282;DHT22;45054;52.062;10.010;2024-02-21T07:15:48;8.60;99.90
59282;DHT22;45054;52.062;10.010;2024-02-21T07:18:13;8.60;99.90
59282;DHT22;45054;52.062;10.010;2024-02-21T07:20:39;8.60;99.90
59282;DHT22;45054;52.062;10.010;2024-02-21T07:23:04;8.70;99.90
59282;DHT22;45054;52.062;10.010;2024-02-21T07:25:30;8.70;99.90
59282;DHT22;45054;52.062;10.010;2024-02-21T07:27:56;8.70;99.90
59282;DHT22;45054;52.062;10.010;2024-02-21T07:30:22;8.70;99.90
59282;DHT22;45054;52.062;10.010;2024-02-21T07:32:49;8.60;99.90
59282;DHT22;45054;52.062;10.010;2024-02-21T07:35:14;8.70;99.90
59282;DHT22;45054;52.062;10.010;2024-02-21T07:37:40;8.70;99.90
59282;DHT22;45054;52.062;10.010;2024-02-21T07:40:11;8.70;99.90
59282;DHT22;45054;52.062;10.010;2024-02-21T07:42:37;8.70;99.90
59282;DHT22;45054;52.062;10.010;2024-02-21T07:45:03;8.70;99.90
59282;DHT22;45054;52.062;10.010;2024-02-21T07:47:30;8.70;99.90
59282;DHT22;45054;52.062;10.010;2024-02-21T07:49:55;8.70;99.90
59282;DHT22;45054;52.062;10.010;2024-02-21T07:52:21;8.70;99.90
59282;DHT22;45054;52.062;10.010;2024-02-21T07:54:47;8.70;99.90
59282;DHT22;45054;52.062;10.010;2024-02-21T07:57:12;8.80;99.90
59282;DHT22;45054;52.062;10.010;2024-02-21T07:59:38;8.90;99.90
59282;DHT22;45054;52.062;10.010;2024-02-21T08:02:03;8.90;99.90
59282;DHT22;45054;52.062;10.010;2024-02-21T08:04:30;8.90;99.90
59282;DHT22;45054;52.062;10.010;2024-02-21T08:06:56;8.90;99.90
59282;DHT22;45054;52.062;10.010;2024-02-21T08:09:22;8.90;99.90
59282;DHT22;45054;52.062;10.010;2024-02-21T08:11:47;9.00;99.90
59282;DHT22;45054;52.062;10.010;2024-02-21T08:14:13;8.90;99.90
59282;DHT22;45054;52.062;10.010;2024-02-21T08:16:38;8.90;99.90
59282;DHT22;45054;52.062;10.010;2024-02-21T08:19:04;8.90;99.90
59282;DHT22;45054;52.062;10.010;2024-02-21T08:21:31;8.90;99.90
59282;DHT22;45054;52.062;10.010;2024-02-21T08:23:56;8.90;99.90
59282;DHT22;45054;52.062;10.010;2024-02-21T08:26:22;9.00;99.90
59282;DHT22;45054;52.062;10.010;2024-02-21T08:28:47;8.90;99.90
59282;DHT22;45054;52.062;10.010;2024-02-21T08:31:18;8.90;99.90
59282;DHT22;45054;52.062;10.010;2024-02-21T08:33:44;8.90;99.90
59282;DHT22;45054;52.062;10.010;2024-02-21T08:36:17;8.90;99.90
59282;DHT22;45054;52.062;10.010;2024-02-21T08:38:44;8.90;99.90
59282;DHT22;45054;52.062;10.010;2024-02-21T08:41:09;8.90;99.90
59282;DHT22;45054;52.062;10.010;2024-02-21T08:43:35;8.90;99.90
59282;DHT22;45054;52.062;10.010;2024-02-21T08:46:00;8.90;99.90
59282;DHT22;45054;52.062;10.010;2024-02-21T08:48:26;8.90;99.90
59282;DHT22;45054;52.062;10.010;2024-02-21T08:50:52;8.90;99.90
59282;DHT22;45054;52.062;10.010;2024-02-21T08:53:17;8.90;99.90
59282;DHT22;45054;52.062;10.010;2024-02-21T08:55:44;8.90;99.90
59282;DHT22;45054;52.062;10.010;2024-02-21T08:58:10;8.90;99.90
59282;DHT22;45054;52.062;10.010;2024-02-21T09:00:35;8.90;99.90
59282;DHT22;45054;52.062;10.010;2024-02-21T09:03:01;8.90;99.90
59282;DHT22;45054;52.062;10.010;2024-02-21T09:05:26;9.00;99.90
59282;DHT22;45054;52.062;10.010;2024-02-21T09:07:52;9.00;99.90
59282;DHT22;45054;52.062;10.010;2024-02-21T09:10:17;9.00;99.90
59282;DHT22;45054;52.062;10.010;2024-02-21T09:12:44;9.00;99.90
59282;DHT22;45054;52.062;10.010;2024-02-21T09:15:10;9.00;99.90
59282;DHT22;45054;52.062;10.010;2024-02-21T09:17:36;9.10;99.90
59282;DHT22;45054;52.062;10.010;2024-02-21T09:20:01;9.10;99.90
59282;DHT22;45054;52.062;10.010;2024-02-21T09:22:27;9.10;99.90
59282;DHT22;45054;52.062;10.010;2024-02-21T09:24:53;9.10;99.90
59282;DHT22;45054;52.062;10.010;2024-02-21T09:27:18;9.10;99.90
59282;DHT22;45054;52.062;10.010;2024-02-21T09:29:45;9.10;99.90
59282;DHT22;45054;52.062;10.010;2024-02-21T09:32:11;9.10;99.90
59282;DHT22;45054;52.062;10.010;2024-02-21T09:34:36;9.10;99.90
59282;DHT22;45054;52.062;10.010;2024-02-21T09:37:02;9.20;99.90
59282;DHT22;45054;52.062;10.010;2024-02-21T09:39:27;9.20;99.90
59282;DHT22;45054;52.062;10.010;2024-02-21T09:41:57;9.20;99.90
59282;DHT22;45054;52.062;10.010;2024-02-21T09:44:24;9.20;99.90
59282;DHT22;45054;52.062;10.010;2024-02-21T09:47:02;9.20;99.90
59282;DHT22;45054;52.062;10.010;2024-02-21T09:49:30;9.20;99.90
59282;DHT22;45054;52.062;10.010;2024-02-21T09:51:57;9.20;99.90
59282;DHT22;45054;52.062;10.010;2024-02-21T09:54:25;9.30;99.90
59282;DHT22;45054;52.062;10.010;2024-02-21T09:56:51;9.30;99.90
59282;DHT22;45054;52.062;10.010;2024-02-21T09:59:16;9.20;99.90
59282;DHT22;45054;52.062;10.010;2024-02-21T10:01:42;9.30;99.90
59282;DHT22;45054;52.062;10.010;2024-02-21T10:04:09;9.30;99.90
59282;DHT22;45054;52.062;10.010;2024-02-21T10:06:35;9.30;99.90
59282;DHT22;45054;52.062;10.010;2024-02-21T10:09:01;9.30;99.90
59282;DHT22;45054;52.062;10.010;2024-02-21T10:11:26;9.30;99.90
59282;DHT22;45054;52.062;10.010;2024-02-21T10:14:02;9.40;99.90
59282;DHT22;45054;52.062;10.010;2024-02-21T10:16:28;9.40;99.90
59282;DHT22;45054;52.062;10.010;2024-02-21T10:18:54;9.50;99.90
59282;DHT22;45054;52.062;10.010;2024-02-21T10:21:21;9.50;99.90
59282;DHT22;45054;52.062;10.010;2024-02-21T10:23:49;9.50;99.90
59282;DHT22;45054;52.062;10.010;2024-02-21T10:26:15;9.60;99.90
59282;DHT22;45054;52.062;10.010;2024-02-21T10:28:41;9.50;99.90
59282;DHT22;45054;52.062;10.010;2024-02-21T10:31:07;9.60;99.90
59282;DHT22;45054;52.062;10.010;2024-02-21T10:33:33;9.70;99.90
59282;DHT22;45054;52.062;10.010;2024-02-21T10:36:06;9.70;99.90
59282;DHT22;45054;52.062;10.010;2024-02-21T10:38:33;9.70;99.90
59282;DHT22;45054;52.062;10.010;2024-02-21T10:40:59;9.70;99.90
59282;DHT22;45054;52.062;10.010;2024-02-21T10:43:26;9.70;99.90
59282;DHT22;45054;52.062;10.010;2024-02-21T10:45:52;9.70;99.90
59282;DHT22;45054;52.062;10.010;2024-02-21T10:48:24;9.80;99.90
59282;DHT22;45054;52.062;10.010;2024-02-21T10:51:02;9.80;99.90
59282;DHT22;45054;52.062;10.010;2024-02-21T10:53:36;9.80;99.90
59282;DHT22;45054;52.062;10.010;2024-02-21T10:56:10;9.70;99.90
59282;DHT22;45054;52.062;10.010;2024-02-21T10:58:37;9.80;99.90
59282;DHT22;45054;52.062;10.010;2024-02-21T11:01:04;9.90;99.90
59282;DHT22;45054;52.062;10.010;2024-02-21T11:03:30;9.90;99.90
59282;DHT22;45054;52.062;10.010;2024-02-21T11:05:56;9.90;99.90
59282;DHT22;45054;52.062;10.010;2024-02-21T11:08:22;9.90;99.90
59282;DHT22;45054;52.062;10.010;2024-02-21T11:10:49;9.90;99.90
59282;DHT22;45054;52.062;10.010;2024-02-21T11:13:15;9.90;99.90
59282;DHT22;45054;52.062;10.010;2024-02-21T11:15:41;10.00;99.90
59282;DHT22;45054;52.062;10.010;2024-02-21T11:18:06;9.90;99.90
59282;DHT22;45054;52.062;10.010;2024-02-21T11:20:32;10.00;99.90
59282;DHT22;45054;52.062;10.010;2024-02-21T11:22:58;10.00;99.90
59282;DHT22;45054;52.062;10.010;2024-02-21T11:25:24;10.10;99.90
59282;DHT22;45054;52.062;10.010;2024-02-21T11:27:59;10.00;99.90
59282;DHT22;45054;52.062;10.010;2024-02-21T11:30:26;10.10;99.90
59282;DHT22;45054;52.062;10.010;2024-02-21T11:32:59;10.10;99.90
59282;DHT22;45054;52.062;10.010;2024-02-21T11:35:25;10.10;99.90
59282;DHT22;45054;52.062;10.010;2024-02-21T11:37:55;10.10;99.90
59282;DHT22;45054;52.062;10.010;2024-02-21T11:40:21;10.10;99.90
59282;DHT22;45054;52.062;10.010;2024-02-21T11:42:48;10.10;99.90
59282;DHT22;45054;52.062;10.010;2024-02-21T11:45:16;10.20;99.90
59282;DHT22;45054;52.062;10.010;2024-02-21T11:47:42;10.10;99.90
59282;DHT22;45054;52.062;10.010;2024-02-21T11:50:10;10.10;99.90
59282;DHT22;45054;52.062;10.010;2024-02-21T11:52:35;10.00;99.90
59282;DHT22;45054;52.062;10.010;2024-02-21T11:55:01;10.00;99.90
59282;DHT22;45054;52.062;10.010;2024-02-21T11:57:27;10.20;99.90
59282;DHT22;45054;52.062;10.010;2024-02-21T11:59:52;10.20;99.90
59282;DHT22;45054;52.062;10.010;2024-02-21T12:02:19;10.20;99.90
59282;DHT22;45054;52.062;10.010;2024-02-21T12:04:45;10.20;99.90
59282;DHT22;45054;52.062;10.010;2024-02-21T12:07:11;10.30;99.90
59282;DHT22;45054;52.062;10.010;2024-02-21T12:09:36;10.30;99.90
59282;DHT22;45054;52.062;10.010;2024-02-21T12:12:04;10.40;99.90
59282;DHT22;45054;52.062;10.010;2024-02-21T12:14:31;10.50;99.90
59282;DHT22;45054;52.062;10.010;2024-02-21T12:16:57;10.50;99.90
59282;DHT22;45054;52.062;10.010;2024-02-21T12:19:24;10.50;99.90
59282;DHT22;45054;52.062;10.010;2024-02-21T12:21:50;10.50;99.90
59282;DHT22;45054;52.062;10.010;2024-02-21T12:24:17;10.60;99.90
59282;DHT22;45054;52.062;10.010;2024-02-21T12:26:43;10.60;99.90
59282;DHT22;45054;52.062;10.010;2024-02-21T12:29:09;10.50;99.90
59282;DHT22;45054;52.062;10.010;2024-02-21T12:31:34;10.50;99.90
59282;DHT22;45054;52.062;10.010;2024-02-21T12:34:00;10.50;99.90
59282;DHT22;45054;52.062;10.010;2024-02-21T12:36:27;10.60;99.90
59282;DHT22;45054;52.062;10.010;2024-02-21T12:38:52;10.70;99.90
59282;DHT22;45054;52.062;10.010;2024-02-21T12:41:18;10.70;99.90
59282;DHT22;45054;52.062;10.010;2024-02-21T12:43:44;10.80;99.90
59282;DHT22;45054;52.062;10.010;2024-02-21T12:46:09;10.90;99.90
59282;DHT22;45054;52.062;10.010;2024-02-21T12:48:35;10.80;99.90
59282;DHT22;45054;52.062;10.010;2024-02-21T12:51:01;10.90;99.90
59282;DHT22;45054;52.062;10.010;2024-02-21T12:53:28;10.90;99.90
59282;DHT22;45054;52.062;10.010;2024-02-21T12:55:53;10.90;99.90
59282;DHT22;45054;52.062;10.010;2024-02-21T12:58:19;10.90;99.90
59282;DHT22;45054;52.062;10.010;2024-02-21T13:00:44;10.80;99.90
59282;DHT22;45054;52.062;10.010;2024-02-21T13:03:10;10.80;99.90
59282;DHT22;45054;52.062;10.010;2024-02-21T13:05:35;10.80;99.90
59282;DHT22;45054;52.062;10.010;2024-02-21T13:08:01;10.80;99.90
59282;DHT22;45054;52.062;10.010;2024-02-21T13:10:28;10.70;99.90
59282;DHT22;45054;52.062;10.010;2024-02-21T13:12:54;10.70;99.90
59282;DHT22;45054;52.062;10.010;2024-02-21T13:15:20;10.70;99.90
59282;DHT22;45054;52.062;10.010;2024-02-21T13:17:45;10.70;99.90
59282;DHT22;45054;52.062;10.010;2024-02-21T13:20:11;10.70;99.90
59282;DHT22;45054;52.062;10.010;2024-02-21T13:22:37;10.70;99.90
59282;DHT22;45054;52.062;10.010;2024-02-21T13:25:03;10.70;99.90
59282;DHT22;45054;52.062;10.010;2024-02-21T13:27:30;10.60;99.90
59282;DHT22;45054;52.062;10.010;2024-02-21T13:29:56;10.60;99.90
59282;DHT22;45054;52.062;10.010;2024-02-21T13:32:23;10.60;99.90
59282;DHT22;45054;52.062;10.010;2024-02-21T13:34:49;10.60;99.90
59282;DHT22;45054;52.062;10.010;2024-02-21T13:37:15;10.60;99.90
59282;DHT22;45054;52.062;10.010;2024-02-21T13:39:41;10.60;99.90
59282;DHT22;45054;52.062;10.010;2024-02-21T13:42:07;10.60;99.90
59282;DHT22;45054;52.062;10.010;2024-02-21T13:44:34;10.60;99.90
59282;DHT22;45054;52.062;10.010;2024-02-21T13:46:59;10.60;99.90
59282;DHT22;45054;52.062;10.010;2024-02-21T13:49:25;10.70;99.90
59282;DHT22;45054;52.062;10.010;2024-02-21T13:51:50;10.60;99.90
59282;DHT22;45054;52.062;10.010;2024-02-21T13:54:16;10.60;99.90
59282;DHT22;45054;52.062;10.010;2024-02-21T13:56:41;10.60;99.90
59282;DHT22;45054;52.062;10.010;2024-02-21T13:59:07;10.50;99.90
59282;DHT22;45054;52.062;10.010;2024-02-21T14:01:34;10.50;99.90
59282;DHT22;45054;52.062;10.010;2024-02-21T14:04:00;10.50;99.90
59282;DHT22;45054;52.062;10.010;2024-02-21T14:06:25;10.50;99.90
59282;DHT22;45054;52.062;10.010;2024-02-21T14:08:51;10.50;99.90
59282;DHT22;45054;52.062;10.010;2024-02-21T14:11:17;10.50;99.90
59282;DHT22;45054;52.062;10.010;2024-02-21T14:13:42;10.50;99.90
59282;DHT22;45054;52.062;10.010;2024-02-21T14:16:09;10.50;99.90
59282;DHT22;45054;52.062;10.010;2024-02-21T14:18:37;10.40;99.90
59282;DHT22;45054;52.062;10.010;2024-02-21T14:21:04;10.40;99.90
59282;DHT22;45054;52.062;10.010;2024-02-21T14:23:29;10.40;99.90
59282;DHT22;45054;52.062;10.010;2024-02-21T14:25:55;10.40;99.90
59282;DHT22;45054;52.062;10.010;2024-02-21T14:28:20;10.30;99.90
59282;DHT22;45054;52.062;10.010;2024-02-21T14:30:46;10.20;99.90
59282;DHT22;45054;52.062;10.010;2024-02-21T14:33:12;10.10;99.90
59282;DHT22;45054;52.062;10.010;2024-02-21T14:35:40;10.00;99.90
59282;DHT22;45054;52.062;10.010;2024-02-21T14:38:05;10.00;99.90
59282;DHT22;45054;52.062;10.010;2024-02-21T14:40:31;9.90;99.90
59282;DHT22;45054;52.062;10.010;2024-02-21T14:42:56;9.80;99.90
59282;DHT22;45054;52.062;10.010;2024-02-21T14:45:22;9.80;99.90
59282;DHT22;45054;52.062;10.010;2024-02-21T14:47:48;9.70;99.90
59282;DHT22;45054;52.062;10.010;2024-02-21T14:50:13;9.70;99.90
59282;DHT22;45054;52.062;10.010;2024-02-21T14:52:43;9.70;99.90
59282;DHT22;45054;52.062;10.010;2024-02-21T14:55:09;9.60;99.90
59282;DHT22;45054;52.062;10.010;2024-02-21T14:57:34;9.60;99.90
59282;DHT22;45054;52.062;10.010;2024-02-21T15:00:00;9.60;99.90
59282;DHT22;45054;52.062;10.010;2024-02-21T15:02:25;9.60;99.90
59282;DHT22;45054;52.062;10.010;2024-02-21T15:04:51;9.60;99.90
59282;DHT22;45054;52.062;10.010;2024-02-21T15:07:17;9.50;99.90
59282;DHT22;45054;52.062;10.010;2024-02-21T15:09:44;9.50;99.90
59282;DHT22;45054;52.062;10.010;2024-02-21T15:12:09;9.40;99.90
59282;DHT22;45054;52.062;10.010;2024-02-21T15:14:35;9.40;99.90
59282;DHT22;45054;52.062;10.010;2024-02-21T15:17:00;9.40;99.90
59282;DHT22;45054;52.062;10.010;2024-02-21T15:19:26;9.50;99.90